createdAt,value
2018-04-11T00:00:33.865Z,0
2018-04-11T00:01:33.752Z,0
2018-04-11T00:02:33.840Z,0
2018-04-11T00:03:33.815Z,0
2018-04-11T00:04:33.772Z,0
2018-04-11T00:05:33.835Z,0
2018-04-11T00:06:33.869Z,0
2018-04-11T00:07:33.815Z,0
2018-04-11T00:08:33.771Z,0
2018-04-11T00:09:33.711Z,0
2018-04-11T00:10:33.779Z,0
2018-04-11T00:11:33.795Z,0
2018-04-11T00:12:33.742Z,0
2018-04-11T00:13:33.744Z,0
2018-04-11T00:14:33.716Z,0
2018-04-11T00:15:33.822Z,0
2018-04-11T00:16:33.749Z,0
2018-04-11T00:17:33.751Z,0
2018-04-11T00:18:33.839Z,0
2018-04-11T00:19:33.714Z,0
2018-04-11T00:20:33.788Z,0
2018-04-11T00:21:33.792Z,0
2018-04-11T00:22:33.773Z,0
2018-04-11T00:23:33.847Z,0
2018-04-11T00:24:33.840Z,0
2018-04-11T00:25:33.723Z,0
2018-04-11T00:26:33.829Z,0
2018-04-11T00:27:33.751Z,0
2018-04-11T00:28:33.752Z,0
2018-04-11T00:29:33.807Z,0
2018-04-11T00:30:33.883Z,0
2018-04-11T00:31:33.796Z,0
2018-04-11T00:32:33.801Z,0
2018-04-11T00:33:33.758Z,0
2018-04-11T00:34:33.810Z,0
2018-04-11T00:35:33.858Z,0
2018-04-11T00:36:33.799Z,0
2018-04-11T00:37:33.912Z,0
2018-04-11T00:38:33.788Z,0
2018-04-11T00:39:33.897Z,0
2018-04-11T00:40:33.819Z,0
2018-04-11T00:41:33.817Z,0
2018-04-11T00:42:33.825Z,0
2018-04-11T00:43:33.859Z,0
2018-04-11T00:44:33.863Z,0
2018-04-11T00:45:33.880Z,0
2018-04-11T00:46:33.896Z,0
2018-04-11T00:47:33.895Z,0
2018-04-11T00:48:33.859Z,0
2018-04-11T00:49:33.861Z,0
2018-04-11T00:50:33.927Z,0
2018-04-11T00:51:33.840Z,0
2018-04-11T00:52:33.770Z,0
2018-04-11T00:53:33.897Z,0
2018-04-11T00:54:33.901Z,0
2018-04-11T00:55:33.852Z,0
2018-04-11T00:56:33.827Z,0
2018-04-11T00:57:33.836Z,0
2018-04-11T00:58:33.869Z,0
2018-04-11T00:59:33.927Z,0
2018-04-11T01:00:33.849Z,0
2018-04-11T01:01:33.905Z,0
2018-04-11T01:02:33.897Z,0
2018-04-11T01:03:33.909Z,0
2018-04-11T01:04:33.870Z,0
2018-04-11T01:05:33.904Z,0
2018-04-11T01:06:33.772Z,0
2018-04-11T01:07:33.875Z,0
2018-04-11T01:08:33.874Z,0
2018-04-11T01:09:33.874Z,0
2018-04-11T01:10:33.902Z,0
2018-04-11T01:11:33.838Z,0
2018-04-11T01:12:33.844Z,0
2018-04-11T01:13:33.847Z,0
2018-04-11T01:14:33.905Z,0
2018-04-11T01:15:33.841Z,0
2018-04-11T01:16:33.800Z,0
2018-04-11T01:17:33.876Z,0
2018-04-11T01:18:33.887Z,0
2018-04-11T01:19:33.872Z,0
2018-04-11T01:20:33.800Z,0
2018-04-11T01:21:33.875Z,0
2018-04-11T01:22:33.805Z,0
2018-04-11T01:23:33.797Z,0
2018-04-11T01:24:33.799Z,0
2018-04-11T01:25:33.805Z,0
2018-04-11T01:26:33.878Z,0
2018-04-11T01:27:33.803Z,0
2018-04-11T01:28:33.879Z,0
2018-04-11T01:29:33.954Z,0
2018-04-11T01:30:33.865Z,0
2018-04-11T01:31:33.849Z,0
2018-04-11T01:32:33.888Z,0
2018-04-11T01:33:33.824Z,0
2018-04-11T01:34:33.928Z,0
2018-04-11T01:35:33.822Z,0
2018-04-11T01:36:33.869Z,0
2018-04-11T01:37:33.926Z,0
2018-04-11T01:38:33.791Z,0
2018-04-11T01:39:33.949Z,0
2018-04-11T01:40:33.871Z,0
2018-04-11T01:41:33.891Z,0
2018-04-11T01:42:33.950Z,0
2018-04-11T01:43:33.871Z,0
2018-04-11T01:44:33.965Z,0
2018-04-11T01:45:33.898Z,0
2018-04-11T01:46:33.894Z,0
2018-04-11T01:47:33.932Z,0
2018-04-11T01:48:33.913Z,0
2018-04-11T01:49:33.819Z,0
2018-04-11T01:50:33.816Z,0
2018-04-11T01:51:33.934Z,0
2018-04-11T01:52:33.835Z,0
2018-04-11T01:53:33.866Z,0
2018-04-11T01:54:33.900Z,0
2018-04-11T01:55:33.935Z,0
2018-04-11T01:56:33.840Z,0
2018-04-11T01:57:33.882Z,0
2018-04-11T01:58:33.931Z,0
2018-04-11T01:59:33.926Z,0
2018-04-11T02:00:33.903Z,0
2018-04-11T02:01:33.876Z,0
2018-04-11T02:02:33.832Z,0
2018-04-11T02:03:33.883Z,0
2018-04-11T02:04:33.877Z,0
2018-04-11T02:05:33.933Z,0
2018-04-11T02:06:33.887Z,0
2018-04-11T02:07:33.911Z,0
2018-04-11T02:08:33.911Z,0
2018-04-11T02:09:33.910Z,0
2018-04-11T02:10:33.885Z,0
2018-04-11T02:11:33.920Z,0
2018-04-11T02:12:33.855Z,0
2018-04-11T02:13:33.889Z,0
2018-04-11T02:14:33.850Z,0
2018-04-11T02:15:33.819Z,0
2018-04-11T02:16:33.935Z,0
2018-04-11T02:17:33.889Z,0
2018-04-11T02:18:33.890Z,0
2018-04-11T02:19:33.877Z,0
2018-04-11T02:20:33.845Z,0
2018-04-11T02:21:33.887Z,0
2018-04-11T02:22:33.923Z,0
2018-04-11T02:23:33.919Z,0
2018-04-11T02:24:33.918Z,0
2018-04-11T02:25:33.960Z,0
2018-04-11T02:26:33.847Z,0
2018-04-11T02:27:33.905Z,0
2018-04-11T02:28:33.984Z,0
2018-04-11T02:29:33.856Z,0
2018-04-11T02:30:33.876Z,0
2018-04-11T02:31:33.991Z,0
2018-04-11T02:32:33.856Z,0
2018-04-11T02:33:33.928Z,0
2018-04-11T02:34:33.931Z,0
2018-04-11T02:35:33.953Z,0
2018-04-11T02:36:33.859Z,0
2018-04-11T02:37:33.864Z,0
2018-04-11T02:38:33.860Z,0
2018-04-11T02:39:33.860Z,0
2018-04-11T02:40:33.863Z,0
2018-04-11T02:41:33.936Z,0
2018-04-11T02:42:33.929Z,0
2018-04-11T02:43:33.943Z,0
2018-04-11T02:44:33.820Z,0
2018-04-11T02:45:33.942Z,0
2018-04-11T02:46:33.865Z,0
2018-04-11T02:47:33.886Z,0
2018-04-11T02:48:33.909Z,0
2018-04-11T02:49:33.910Z,0
2018-04-11T02:50:33.907Z,0
2018-04-11T02:51:33.900Z,0
2018-04-11T02:52:33.885Z,0
2018-04-11T02:53:33.995Z,0
2018-04-11T02:54:33.876Z,0
2018-04-11T02:55:33.909Z,0
2018-04-11T02:56:33.874Z,0
2018-04-11T02:57:33.908Z,0
2018-04-11T02:58:33.937Z,0
2018-04-11T02:59:33.837Z,0
2018-04-11T03:00:33.806Z,0
2018-04-11T03:01:33.804Z,0
2018-04-11T03:02:33.820Z,0
2018-04-11T03:03:33.864Z,0
2018-04-11T03:04:33.880Z,0
2018-04-11T03:05:33.911Z,0
2018-04-11T03:06:33.931Z,0
2018-04-11T03:07:33.936Z,0
2018-04-11T03:08:33.938Z,0
2018-04-11T03:09:33.947Z,0
2018-04-11T03:10:33.867Z,0
2018-04-11T03:11:33.886Z,0
2018-04-11T03:12:33.991Z,0
2018-04-11T03:13:33.877Z,0
2018-04-11T03:14:33.880Z,0
2018-04-11T03:15:34.009Z,0
2018-04-11T03:16:33.892Z,0
2018-04-11T03:17:33.921Z,0
2018-04-11T03:18:33.895Z,0
2018-04-11T03:19:33.823Z,0
2018-04-11T03:20:33.937Z,0
2018-04-11T03:21:33.890Z,0
2018-04-11T03:22:33.826Z,0
2018-04-11T03:23:33.951Z,0
2018-04-11T03:24:33.917Z,0
2018-04-11T03:25:33.827Z,0
2018-04-11T03:26:33.914Z,0
2018-04-11T03:27:33.942Z,0
2018-04-11T03:28:33.936Z,0
2018-04-11T03:29:33.971Z,0
2018-04-11T03:30:33.895Z,0
2018-04-11T03:31:33.891Z,0
2018-04-11T03:32:33.897Z,0
2018-04-11T03:33:33.908Z,0
2018-04-11T03:34:33.967Z,0
2018-04-11T03:35:33.896Z,0
2018-04-11T03:36:33.973Z,0
2018-04-11T03:37:33.967Z,0
2018-04-11T03:38:33.895Z,0
2018-04-11T03:39:33.855Z,0
2018-04-11T03:40:33.957Z,0
2018-04-11T03:41:33.902Z,0
2018-04-11T03:42:33.910Z,0
2018-04-11T03:43:33.953Z,0
2018-04-11T03:44:33.907Z,0
2018-04-11T03:45:33.862Z,0
2018-04-11T03:46:33.867Z,0
2018-04-11T03:47:33.928Z,0
2018-04-11T03:48:33.840Z,0
2018-04-11T03:49:33.968Z,0
2018-04-11T03:50:33.947Z,0
2018-04-11T03:51:34.013Z,0
2018-04-11T03:52:34.011Z,0
2018-04-11T03:53:34.008Z,0
2018-04-11T03:54:33.877Z,0
2018-04-11T03:55:33.979Z,0
2018-04-11T03:56:33.911Z,0
2018-04-11T03:57:34.001Z,0
2018-04-11T03:58:33.957Z,0
2018-04-11T03:59:33.999Z,0
2018-04-11T04:00:33.912Z,0
2018-04-11T04:01:33.937Z,0
2018-04-11T04:02:33.908Z,0
2018-04-11T04:03:33.911Z,0
2018-04-11T04:04:33.984Z,0
2018-04-11T04:05:34.004Z,0
2018-04-11T04:06:33.988Z,0
2018-04-11T04:07:33.948Z,0
2018-04-11T04:08:33.969Z,0
2018-04-11T04:09:33.952Z,0
2018-04-11T04:10:34.045Z,0
2018-04-11T04:11:33.889Z,0
2018-04-11T04:12:34.048Z,0
2018-04-11T04:13:33.913Z,0
2018-04-11T04:14:33.911Z,0
2018-04-11T04:15:33.893Z,0
2018-04-11T04:16:33.987Z,0
2018-04-11T04:17:34.015Z,0
2018-04-11T04:18:34.017Z,0
2018-04-11T04:19:33.913Z,0
2018-04-11T04:20:34.016Z,0
2018-04-11T04:21:33.989Z,5
2018-04-11T04:22:33.963Z,5
2018-04-11T04:23:33.963Z,5
2018-04-11T04:24:34.051Z,5
2018-04-11T04:25:33.956Z,5
2018-04-11T04:26:33.969Z,5
2018-04-11T04:27:33.991Z,11
2018-04-11T04:28:34.001Z,11
2018-04-11T04:29:33.927Z,11
2018-04-11T04:30:34.091Z,16
2018-04-11T04:31:33.994Z,16
2018-04-11T04:32:33.997Z,16
2018-04-11T04:33:34.030Z,16
2018-04-11T04:34:34.057Z,22
2018-04-11T04:35:34.020Z,22
2018-04-11T04:36:34.061Z,22
2018-04-11T04:37:33.995Z,28
2018-04-11T04:38:33.969Z,28
2018-04-11T04:39:33.933Z,33
2018-04-11T04:40:34.002Z,33
2018-04-11T04:41:34.026Z,33
2018-04-11T04:42:34.025Z,39
2018-04-11T04:43:34.021Z,39
2018-04-11T04:44:33.983Z,45
2018-04-11T04:45:33.967Z,45
2018-04-11T04:46:34.040Z,50
2018-04-11T04:47:33.973Z,56
2018-04-11T04:48:34.074Z,56
2018-04-11T04:49:33.981Z,61
2018-04-11T04:50:33.933Z,61
2018-04-11T04:51:34.025Z,67
2018-04-11T04:52:34.018Z,73
2018-04-11T04:53:33.935Z,73
2018-04-11T04:54:34.010Z,78
2018-04-11T04:55:33.973Z,84
2018-04-11T04:56:33.915Z,90
2018-04-11T04:57:33.977Z,90
2018-04-11T04:58:33.919Z,95
2018-04-11T04:59:33.931Z,101
2018-04-11T05:00:33.978Z,101
2018-04-11T05:01:33.953Z,106
2018-04-11T05:02:33.950Z,106
2018-04-11T05:03:34.034Z,106
2018-04-11T05:04:34.014Z,112
2018-04-11T05:05:34.057Z,118
2018-04-11T05:06:33.985Z,123
2018-04-11T05:07:34.127Z,129
2018-04-11T05:08:33.922Z,135
2018-04-11T05:09:33.981Z,146
2018-04-11T05:10:33.988Z,151
2018-04-11T05:11:33.937Z,168
2018-04-11T05:12:33.937Z,174
2018-04-11T05:13:34.024Z,185
2018-04-11T05:14:34.043Z,196
2018-04-11T05:15:34.025Z,202
2018-04-11T05:16:34.020Z,213
2018-04-11T05:17:34.034Z,225
2018-04-11T05:18:33.992Z,236
2018-04-11T05:19:33.984Z,247
2018-04-11T05:20:33.960Z,258
2018-04-11T05:21:34.048Z,270
2018-04-11T05:22:34.056Z,281
2018-04-11T05:23:33.996Z,286
2018-04-11T05:24:34.054Z,298
2018-04-11T05:25:34.054Z,309
2018-04-11T05:26:33.935Z,315
2018-04-11T05:27:34.031Z,320
2018-04-11T05:28:33.964Z,326
2018-04-11T05:30:34.060Z,337
2018-04-11T05:31:34.011Z,343
2018-04-11T05:32:33.935Z,348
2018-04-11T05:33:33.949Z,348
2018-04-11T05:34:34.089Z,354
2018-04-11T05:35:33.970Z,365
2018-04-11T05:36:34.076Z,376
2018-04-11T05:37:34.001Z,382
2018-04-11T05:38:33.960Z,388
2018-04-11T05:39:34.059Z,399
2018-04-11T05:40:33.974Z,410
2018-04-11T05:41:34.029Z,421
2018-04-11T05:42:33.911Z,433
2018-04-11T05:43:33.945Z,444
2018-04-11T05:44:34.030Z,461
2018-04-11T05:45:34.030Z,466
2018-04-11T05:46:34.032Z,478
2018-04-11T05:47:34.035Z,489
2018-04-11T05:48:34.034Z,506
2018-04-11T05:49:34.036Z,517
2018-04-11T05:50:33.976Z,528
2018-04-11T05:51:34.045Z,540
2018-04-11T05:52:33.972Z,545
2018-04-11T05:53:33.976Z,556
2018-04-11T05:54:34.046Z,562
2018-04-11T05:55:33.975Z,573
2018-04-11T05:56:34.048Z,585
2018-04-11T05:57:33.977Z,585
2018-04-11T05:58:34.091Z,601
2018-04-11T05:59:34.050Z,613
2018-04-11T06:00:33.979Z,624
2018-04-11T06:01:33.952Z,635
2018-04-11T06:02:34.048Z,641
2018-04-11T06:03:33.978Z,652
2018-04-11T06:04:34.000Z,658
2018-04-11T06:05:34.133Z,663
2018-04-11T06:06:34.041Z,675
2018-04-11T06:07:33.974Z,675
2018-04-11T06:08:34.049Z,680
2018-04-11T06:09:33.997Z,680
2018-04-11T06:10:34.056Z,686
2018-04-11T06:11:34.118Z,686
2018-04-11T06:12:34.081Z,697
2018-04-11T06:13:33.993Z,708
2018-04-11T06:14:33.994Z,725
2018-04-11T06:15:34.055Z,736
2018-04-11T06:16:34.054Z,748
2018-04-11T06:17:34.060Z,776
2018-04-11T06:18:34.059Z,810
2018-04-11T06:19:34.059Z,843
2018-04-11T06:20:34.142Z,871
2018-04-11T06:21:34.055Z,911
2018-04-11T06:22:33.984Z,984
2018-04-11T06:23:33.982Z,1051
2018-04-11T06:24:33.986Z,1158
2018-04-11T06:25:34.056Z,1254
2018-04-11T06:26:34.030Z,1299
2018-04-11T06:27:33.980Z,1321
2018-04-11T06:28:34.051Z,1372
2018-04-11T06:29:34.056Z,1411
2018-04-11T06:30:34.061Z,1428
2018-04-11T06:31:34.062Z,1445
2018-04-11T06:32:33.988Z,1473
2018-04-11T06:33:34.063Z,1462
2018-04-11T06:34:33.972Z,1479
2018-04-11T06:35:33.976Z,1513
2018-04-11T06:36:34.060Z,1524
2018-04-11T06:37:33.998Z,1507
2018-04-11T06:38:34.024Z,1485
2018-04-11T06:39:33.977Z,1535
2018-04-11T06:40:33.996Z,1597
2018-04-11T06:41:34.133Z,1648
2018-04-11T06:42:34.113Z,1726
2018-04-11T06:43:34.109Z,1766
2018-04-11T06:44:34.001Z,1805
2018-04-11T06:45:34.110Z,1845
2018-04-11T06:46:34.074Z,1873
2018-04-11T06:47:34.057Z,1906
2018-04-11T06:48:34.075Z,1923
2018-04-11T06:49:34.047Z,1940
2018-04-11T06:50:34.076Z,1968
2018-04-11T06:51:34.076Z,1980
2018-04-11T06:52:34.071Z,1985
2018-04-11T06:53:34.066Z,2008
2018-04-11T06:54:33.996Z,2019
2018-04-11T06:55:34.076Z,2041
2018-04-11T06:56:34.076Z,2081
2018-04-11T06:57:33.951Z,2098
2018-04-11T06:58:34.080Z,2120
2018-04-11T06:59:33.999Z,2126
2018-04-11T07:00:33.959Z,2154
2018-04-11T07:01:33.958Z,2165
2018-04-11T07:02:34.015Z,2182
2018-04-11T07:03:34.047Z,2165
2018-04-11T07:04:34.089Z,2154
2018-04-11T07:05:33.961Z,2160
2018-04-11T07:06:34.006Z,1704
2018-04-11T07:07:34.086Z,1113
2018-04-11T07:08:33.996Z,1153
2018-04-11T07:09:34.089Z,1378
2018-04-11T07:10:34.023Z,1518
2018-04-11T07:11:34.091Z,1558
2018-04-11T07:12:34.027Z,1726
2018-04-11T07:13:34.095Z,1490
2018-04-11T07:14:34.027Z,1237
2018-04-11T07:15:34.100Z,1366
2018-04-11T07:16:34.064Z,1710
2018-04-11T07:17:34.028Z,1749
2018-04-11T07:18:34.102Z,1845
2018-04-11T07:19:34.032Z,1873
2018-04-11T07:20:34.097Z,1929
2018-04-11T07:21:34.133Z,1912
2018-04-11T07:22:34.037Z,1968
2018-04-11T07:23:34.132Z,1918
2018-04-11T07:24:34.160Z,1963
2018-04-11T07:25:34.131Z,1968
2018-04-11T07:26:34.040Z,1951
2018-04-11T07:27:34.125Z,1963
2018-04-11T07:28:34.065Z,1957
2018-04-11T07:29:34.022Z,2030
2018-04-11T07:30:34.105Z,1951
2018-04-11T07:31:34.043Z,1991
2018-04-11T07:32:34.039Z,2137
2018-04-11T07:33:34.109Z,2227
2018-04-11T07:34:34.132Z,2193
2018-04-11T07:35:34.084Z,2373
2018-04-11T07:36:34.105Z,2452
2018-04-11T07:37:34.063Z,2581
2018-04-11T07:38:34.043Z,2604
2018-04-11T07:39:34.090Z,2587
2018-04-11T07:40:34.109Z,2655
2018-04-11T07:41:34.108Z,2722
2018-04-11T07:42:34.069Z,2739
2018-04-11T07:43:34.121Z,2761
2018-04-11T07:44:34.031Z,2801
2018-04-11T07:45:34.078Z,2840
2018-04-11T07:46:34.067Z,2857
2018-04-11T07:47:34.082Z,2840
2018-04-11T07:48:34.072Z,2829
2018-04-11T07:49:34.075Z,2823
2018-04-11T07:50:34.071Z,2829
2018-04-11T07:51:33.996Z,2851
2018-04-11T07:52:34.115Z,2840
2018-04-11T07:53:34.108Z,2840
2018-04-11T07:54:34.151Z,2863
2018-04-11T07:55:34.022Z,2885
2018-04-11T07:56:34.055Z,2964
2018-04-11T07:57:34.025Z,2986
2018-04-11T07:58:34.058Z,3065
2018-04-11T07:59:34.053Z,3088
2018-04-11T08:00:34.054Z,3093
2018-04-11T08:01:34.055Z,3088
2018-04-11T08:02:34.127Z,3071
2018-04-11T08:03:34.117Z,3082
2018-04-11T08:04:34.119Z,3043
2018-04-11T08:05:34.121Z,2964
2018-04-11T08:06:34.128Z,3037
2018-04-11T08:07:34.093Z,3116
2018-04-11T08:08:34.060Z,3189
2018-04-11T08:09:34.125Z,3195
2018-04-11T08:10:34.057Z,2947
2018-04-11T08:11:34.130Z,3301
2018-04-11T08:12:34.012Z,3296
2018-04-11T08:13:34.222Z,3285
2018-04-11T08:14:34.061Z,3307
2018-04-11T08:15:34.028Z,3313
2018-04-11T08:16:34.063Z,3189
2018-04-11T08:17:34.129Z,3189
2018-04-11T08:18:34.066Z,3144
2018-04-11T08:19:34.132Z,3211
2018-04-11T08:20:34.090Z,3318
2018-04-11T08:21:34.128Z,3391
2018-04-11T08:22:34.041Z,3414
2018-04-11T08:23:34.093Z,3498
2018-04-11T08:24:34.048Z,3420
2018-04-11T08:25:34.060Z,3346
2018-04-11T08:26:34.137Z,2385
2018-04-11T08:27:34.125Z,3324
2018-04-11T08:28:34.073Z,3431
2018-04-11T08:29:34.091Z,3391
2018-04-11T08:30:34.129Z,3425
2018-04-11T08:31:34.034Z,3521
2018-04-11T08:32:34.130Z,3015
2018-04-11T08:33:34.013Z,3470
2018-04-11T08:34:34.139Z,3566
2018-04-11T08:35:34.008Z,3600
2018-04-11T08:36:34.101Z,2970
2018-04-11T08:37:34.078Z,3605
2018-04-11T08:38:34.135Z,3695
2018-04-11T08:39:34.008Z,3583
2018-04-11T08:40:34.147Z,3650
2018-04-11T08:41:34.081Z,3796
2018-04-11T08:42:34.151Z,3735
2018-04-11T08:43:34.082Z,3729
2018-04-11T08:44:34.147Z,3757
2018-04-11T08:45:34.153Z,3706
2018-04-11T08:46:34.152Z,3622
2018-04-11T08:47:34.083Z,3583
2018-04-11T08:48:34.150Z,1580
2018-04-11T08:49:34.083Z,3718
2018-04-11T08:50:34.171Z,3493
2018-04-11T08:51:34.119Z,1839
2018-04-11T08:52:34.149Z,3543
2018-04-11T08:53:34.157Z,3740
2018-04-11T08:54:34.128Z,1749
2018-04-11T08:55:34.108Z,1411
2018-04-11T08:56:34.083Z,1299
2018-04-11T08:57:34.106Z,1305
2018-04-11T08:58:34.130Z,1355
2018-04-11T08:59:34.094Z,1417
2018-04-11T09:00:34.187Z,1586
2018-04-11T09:01:34.077Z,1811
2018-04-11T09:02:34.183Z,1968
2018-04-11T09:03:34.097Z,1946
2018-04-11T09:04:34.124Z,1890
2018-04-11T09:05:34.129Z,1828
2018-04-11T09:06:34.194Z,1850
2018-04-11T09:07:34.193Z,1918
2018-04-11T09:08:34.160Z,1968
2018-04-11T09:09:34.189Z,2002
2018-04-11T09:10:34.179Z,2283
2018-04-11T09:11:34.121Z,3369
2018-04-11T09:12:34.139Z,2593
2018-04-11T09:13:34.162Z,2908
2018-04-11T09:14:34.185Z,2278
2018-04-11T09:15:34.136Z,2548
2018-04-11T09:16:34.170Z,2778
2018-04-11T09:17:34.168Z,4325
2018-04-11T09:18:34.073Z,3155
2018-04-11T09:19:34.131Z,3133
2018-04-11T09:20:34.101Z,2632
2018-04-11T09:21:34.168Z,2632
2018-04-11T09:22:34.100Z,2936
2018-04-11T09:23:34.129Z,4668
2018-04-11T09:24:34.105Z,3645
2018-04-11T09:25:34.172Z,3037
2018-04-11T09:26:34.107Z,2643
2018-04-11T09:27:34.178Z,2452
2018-04-11T09:28:34.111Z,2205
2018-04-11T09:29:34.179Z,1867
2018-04-11T09:30:34.175Z,1856
2018-04-11T09:31:34.193Z,1957
2018-04-11T09:32:34.174Z,1850
2018-04-11T09:33:34.200Z,1631
2018-04-11T09:34:34.098Z,1395
2018-04-11T09:35:34.157Z,1164
2018-04-11T09:36:34.179Z,1040
2018-04-11T09:37:34.077Z,1113
2018-04-11T09:38:34.187Z,1237
2018-04-11T09:39:34.184Z,1293
2018-04-11T09:40:34.148Z,1316
2018-04-11T09:41:34.191Z,1231
2018-04-11T09:42:34.145Z,1215
2018-04-11T09:43:34.208Z,1254
2018-04-11T09:44:34.207Z,1125
2018-04-11T09:45:34.179Z,984
2018-04-11T09:46:34.200Z,939
2018-04-11T09:47:34.088Z,956
2018-04-11T09:48:34.187Z,1080
2018-04-11T09:49:34.145Z,1153
2018-04-11T09:50:34.165Z,1164
2018-04-11T09:51:34.155Z,1170
2018-04-11T09:52:34.088Z,1136
2018-04-11T09:53:34.148Z,1113
2018-04-11T09:54:34.157Z,1074
2018-04-11T09:55:34.220Z,967
2018-04-11T09:56:34.202Z,916
2018-04-11T09:57:34.190Z,1029
2018-04-11T09:58:34.159Z,1203
2018-04-11T09:59:34.176Z,1361
2018-04-11T10:00:34.203Z,1462
2018-04-11T10:01:34.191Z,1462
2018-04-11T10:02:34.101Z,1513
2018-04-11T10:03:34.195Z,1575
2018-04-11T10:04:34.162Z,1659
2018-04-11T10:05:34.200Z,1760
2018-04-11T10:06:34.159Z,1850
2018-04-11T10:07:34.175Z,1912
2018-04-11T10:08:34.218Z,1946
2018-04-11T10:09:34.223Z,1890
2018-04-11T10:10:34.156Z,1935
2018-04-11T10:11:34.203Z,1991
2018-04-11T10:12:34.157Z,2103
2018-04-11T10:13:34.108Z,2075
2018-04-11T10:14:34.104Z,2019
2018-04-11T10:15:34.113Z,2058
2018-04-11T10:16:34.139Z,2092
2018-04-11T10:17:34.091Z,2137
2018-04-11T10:18:34.109Z,2047
2018-04-11T10:19:34.139Z,2008
2018-04-11T10:20:34.120Z,2216
2018-04-11T10:21:34.233Z,2238
2018-04-11T10:22:34.207Z,2098
2018-04-11T10:23:34.243Z,1963
2018-04-11T10:24:34.208Z,1951
2018-04-11T10:25:34.112Z,2143
2018-04-11T10:26:34.110Z,2581
2018-04-11T10:27:34.215Z,2576
2018-04-11T10:28:34.239Z,2615
2018-04-11T10:29:34.113Z,2818
2018-04-11T10:30:34.176Z,2953
2018-04-11T10:31:34.247Z,2778
2018-04-11T10:32:34.244Z,2643
2018-04-11T10:33:34.261Z,3043
2018-04-11T10:34:34.136Z,2885
2018-04-11T10:35:34.126Z,2964
2018-04-11T10:36:34.180Z,2683
2018-04-11T10:37:34.248Z,2958
2018-04-11T10:38:34.244Z,2458
2018-04-11T10:39:34.185Z,2295
2018-04-11T10:40:34.219Z,2137
2018-04-11T10:41:34.276Z,2030
2018-04-11T10:42:34.121Z,2008
2018-04-11T10:43:34.193Z,1946
2018-04-11T10:44:34.192Z,1856
2018-04-11T10:45:34.125Z,1777
2018-04-11T10:46:34.247Z,1755
2018-04-11T10:47:34.262Z,1816
2018-04-11T10:48:34.204Z,1929
2018-04-11T10:49:34.181Z,1980
2018-04-11T10:50:34.131Z,1963
2018-04-11T10:51:34.194Z,1963
2018-04-11T10:52:34.229Z,1935
2018-04-11T10:53:34.244Z,1884
2018-04-11T10:54:34.271Z,1811
2018-04-11T10:55:34.359Z,1743
2018-04-11T10:56:34.200Z,1777
2018-04-11T10:57:34.262Z,1867
2018-04-11T10:58:34.185Z,1850
2018-04-11T10:59:34.268Z,1676
2018-04-11T11:00:34.246Z,1586
2018-04-11T11:01:34.200Z,1586
2018-04-11T11:02:34.236Z,1586
2018-04-11T11:03:34.189Z,1541
2018-04-11T11:04:34.235Z,1501
2018-04-11T11:05:34.254Z,1423
2018-04-11T11:06:34.235Z,1400
2018-04-11T11:07:34.216Z,1456
2018-04-11T11:08:34.236Z,1513
2018-04-11T11:09:34.236Z,1445
2018-04-11T11:10:34.194Z,1305
2018-04-11T11:11:34.273Z,1181
2018-04-11T11:12:34.162Z,1108
2018-04-11T11:13:34.199Z,1085
2018-04-11T11:14:34.179Z,1108
2018-04-11T11:15:34.160Z,1141
2018-04-11T11:16:34.181Z,1198
2018-04-11T11:17:34.216Z,1248
2018-04-11T11:18:34.217Z,1209
2018-04-11T11:19:34.215Z,1074
2018-04-11T11:20:34.148Z,928
2018-04-11T11:21:34.164Z,866
2018-04-11T11:22:34.170Z,843
2018-04-11T11:23:34.258Z,832
2018-04-11T11:24:34.154Z,798
2018-04-11T11:25:34.151Z,753
2018-04-11T11:26:34.190Z,708
2018-04-11T11:27:34.244Z,680
2018-04-11T11:28:34.139Z,703
2018-04-11T11:29:34.243Z,759
2018-04-11T11:30:34.201Z,748
2018-04-11T11:31:34.192Z,669
2018-04-11T11:32:34.255Z,607
2018-04-11T11:33:34.254Z,540
2018-04-11T11:34:34.187Z,466
2018-04-11T11:35:34.259Z,444
2018-04-11T11:36:34.263Z,427
2018-04-11T11:37:34.189Z,410
2018-04-11T11:38:34.187Z,399
2018-04-11T11:39:34.256Z,376
2018-04-11T11:40:34.190Z,365
2018-04-11T11:41:34.239Z,371
2018-04-11T11:42:34.258Z,365
2018-04-11T11:43:34.280Z,360
2018-04-11T11:44:34.296Z,360
2018-04-11T11:45:34.227Z,354
2018-04-11T11:46:34.287Z,354
2018-04-11T11:47:34.170Z,365
2018-04-11T11:48:34.287Z,371
2018-04-11T11:49:34.306Z,371
2018-04-11T11:50:34.285Z,360
2018-04-11T11:51:34.174Z,348
2018-04-11T11:52:34.266Z,331
2018-04-11T11:53:34.180Z,326
2018-04-11T11:54:34.309Z,326
2018-04-11T11:55:34.248Z,331
2018-04-11T11:56:34.295Z,343
2018-04-11T11:57:34.334Z,371
2018-04-11T11:58:34.293Z,416
2018-04-11T11:59:34.274Z,455
2018-04-11T12:00:34.232Z,500
2018-04-11T12:01:34.228Z,500
2018-04-11T12:02:34.166Z,478
2018-04-11T12:03:34.254Z,500
2018-04-11T12:04:34.209Z,534
2018-04-11T12:05:34.261Z,562
2018-04-11T12:06:34.235Z,579
2018-04-11T12:07:34.172Z,585
2018-04-11T12:08:34.198Z,528
2018-04-11T12:09:34.263Z,489
2018-04-11T12:10:34.144Z,461
2018-04-11T12:11:34.285Z,444
2018-04-11T12:12:34.298Z,433
2018-04-11T12:13:34.175Z,421
2018-04-11T12:14:34.210Z,393
2018-04-11T12:15:34.282Z,354
2018-04-11T12:16:34.285Z,326
2018-04-11T12:17:34.283Z,320
2018-04-11T12:18:34.214Z,315
2018-04-11T12:19:34.214Z,298
2018-04-11T12:20:34.287Z,292
2018-04-11T12:21:34.249Z,309
2018-04-11T12:22:34.325Z,331
2018-04-11T12:23:34.181Z,337
2018-04-11T12:24:34.311Z,348
2018-04-11T12:25:34.243Z,365
2018-04-11T12:26:34.298Z,399
2018-04-11T12:27:34.251Z,450
2018-04-11T12:28:34.249Z,472
2018-04-11T12:29:34.289Z,483
2018-04-11T12:30:34.306Z,511
2018-04-11T12:31:34.168Z,562
2018-04-11T12:32:34.095Z,585
2018-04-11T12:33:34.212Z,585
2018-04-11T12:34:34.142Z,585
2018-04-11T12:35:34.099Z,590
2018-04-11T12:36:34.216Z,579
2018-04-11T12:37:34.215Z,551
2018-04-11T12:38:34.221Z,500
2018-04-11T12:39:34.105Z,466
2018-04-11T12:40:34.196Z,450
2018-04-11T12:41:34.324Z,427
2018-04-11T12:42:34.256Z,410
2018-04-11T12:43:34.269Z,393
2018-04-11T12:44:34.206Z,371
2018-04-11T12:45:34.296Z,343
2018-04-11T12:46:34.268Z,348
2018-04-11T12:47:34.257Z,360
2018-04-11T12:48:34.329Z,360
2018-04-11T12:49:34.263Z,382
2018-04-11T12:50:34.268Z,444
2018-04-11T12:51:34.238Z,511
2018-04-11T12:52:34.311Z,562
2018-04-11T12:53:34.268Z,590
2018-04-11T12:54:34.309Z,562
2018-04-11T12:55:34.244Z,534
2018-04-11T12:56:34.239Z,545
2018-04-11T12:57:34.308Z,613
2018-04-11T12:58:34.252Z,731
2018-04-11T12:59:34.311Z,855
2018-04-11T13:00:34.238Z,967
2018-04-11T13:01:34.312Z,1074
2018-04-11T13:02:34.240Z,1130
2018-04-11T13:03:34.314Z,1175
2018-04-11T13:04:34.258Z,1265
2018-04-11T13:05:34.315Z,1411
2018-04-11T13:06:34.266Z,1569
2018-04-11T13:07:34.315Z,1704
2018-04-11T13:08:34.252Z,1839
2018-04-11T13:09:34.251Z,3543
2018-04-11T13:10:34.317Z,2047
2018-04-11T13:11:34.257Z,1777
2018-04-11T13:12:34.201Z,1614
2018-04-11T13:13:34.311Z,1558
2018-04-11T13:14:34.236Z,1608
2018-04-11T13:15:34.238Z,1361
2018-04-11T13:16:34.318Z,1215
2018-04-11T13:17:34.211Z,1186
2018-04-11T13:18:34.316Z,1164
2018-04-11T13:19:34.269Z,1119
2018-04-11T13:20:34.244Z,1029
2018-04-11T13:21:34.313Z,978
2018-04-11T13:22:34.258Z,956
2018-04-11T13:23:34.277Z,911
2018-04-11T13:24:34.312Z,849
2018-04-11T13:25:34.207Z,821
2018-04-11T13:26:34.261Z,804
2018-04-11T13:27:34.321Z,815
2018-04-11T13:28:34.261Z,843
2018-04-11T13:29:34.261Z,916
2018-04-11T13:30:34.196Z,1006
2018-04-11T13:31:34.369Z,1130
2018-04-11T13:32:34.264Z,1220
2018-04-11T13:33:34.313Z,1271
2018-04-11T13:34:34.211Z,1276
2018-04-11T13:35:34.315Z,1276
2018-04-11T13:36:34.214Z,1338
2018-04-11T13:37:34.285Z,1462
2018-04-11T13:38:34.198Z,1575
2018-04-11T13:39:34.280Z,1575
2018-04-11T13:40:34.323Z,1569
2018-04-11T13:41:34.388Z,1575
2018-04-11T13:42:34.366Z,1558
2018-04-11T13:43:34.332Z,1490
2018-04-11T13:44:34.335Z,1468
2018-04-11T13:45:34.302Z,1496
2018-04-11T13:46:34.276Z,1597
2018-04-11T13:47:34.259Z,1884
2018-04-11T13:48:34.336Z,2334
2018-04-11T13:49:34.345Z,2925
2018-04-11T13:50:34.365Z,2531
2018-04-11T13:51:34.240Z,2508
2018-04-11T13:52:34.339Z,2401
2018-04-11T13:53:34.371Z,2401
2018-04-11T13:54:34.344Z,2593